createdAt,value
2023-01-24T00:01:25.709Z,-2.22
2023-01-24T00:03:54.443Z,-2.22
2023-01-24T00:06:23.062Z,-2.23
2023-01-24T00:08:51.692Z,-2.25
2023-01-24T00:11:20.784Z,-2.25
2023-01-24T00:13:49.678Z,-2.24
2023-01-24T00:16:21.962Z,-2.23
2023-01-24T00:18:50.913Z,-2.23
2023-01-24T00:21:21.633Z,-2.23
2023-01-24T00:23:52.184Z,-2.21
2023-01-24T00:26:22.080Z,-2.21
2023-01-24T00:28:52.851Z,-2.20
2023-01-24T00:31:21.877Z,-2.20
2023-01-24T00:33:50.644Z,-2.20
2023-01-24T00:36:21.905Z,-2.20
2023-01-24T00:38:51.704Z,-2.19
2023-01-24T00:41:20.346Z,-2.19
2023-01-24T00:43:50.155Z,-2.20
2023-01-24T00:46:19.955Z,-2.20
2023-01-24T00:48:50.955Z,-2.20
2023-01-24T00:51:21.773Z,-2.20
2023-01-24T00:53:50.599Z,-2.20
2023-01-24T00:56:19.319Z,-2.20
2023-01-24T00:58:48.602Z,-2.20
2023-01-24T01:01:17.625Z,-2.20
2023-01-24T01:03:46.992Z,-2.19
2023-01-24T01:06:17.063Z,-2.18
2023-01-24T01:08:46.242Z,-2.17
2023-01-24T01:11:15.305Z,-2.17
2023-01-24T01:13:44.318Z,-2.17
2023-01-24T01:16:17.652Z,-2.16
2023-01-24T01:18:48.042Z,-2.16
2023-01-24T01:21:18.442Z,-2.15
2023-01-24T01:23:47.529Z,-2.14
2023-01-24T01:26:18.322Z,-2.13
2023-01-24T01:28:47.191Z,-2.13
2023-01-24T01:31:16.283Z,-2.12
2023-01-24T01:33:45.259Z,-2.12
2023-01-24T01:36:14.163Z,-2.12
2023-01-24T01:38:43.128Z,-2.12
2023-01-24T01:41:13.732Z,-2.12
2023-01-24T01:44:02.609Z,-2.12
2023-01-24T01:46:41.717Z,-2.11
2023-01-24T01:49:19.401Z,-2.10
2023-01-24T01:51:49.815Z,-2.09
2023-01-24T01:54:19.849Z,-2.09
2023-01-24T01:56:59.142Z,-2.08
2023-01-24T01:59:37.031Z,-2.08
2023-01-24T02:02:09.407Z,-2.06
2023-01-24T02:04:40.308Z,-2.06
2023-01-24T02:07:32.362Z,-2.05
2023-01-24T02:10:00.980Z,-2.04
2023-01-24T02:12:32.000Z,-2.04
2023-01-24T02:15:25.752Z,-2.04
2023-01-24T02:17:55.343Z,-2.04
2023-01-24T02:20:34.310Z,-2.05
2023-01-24T02:23:43.944Z,-2.05
2023-01-24T02:26:13.892Z,-2.05
2023-01-24T02:28:55.132Z,-2.04
2023-01-24T02:31:23.554Z,-2.04
2023-01-24T02:33:51.852Z,-2.04
2023-01-24T02:36:25.835Z,-2.04
2023-01-24T02:38:56.513Z,-2.04
2023-01-24T02:41:28.642Z,-2.04
2023-01-24T02:43:59.425Z,-2.02
2023-01-24T02:46:30.886Z,-2.02
2023-01-24T02:48:59.683Z,-2.02
2023-01-24T02:51:47.019Z,-2.01
2023-01-24T02:54:16.776Z,-2.02
2023-01-24T02:57:04.578Z,-2.02
2023-01-24T02:59:33.759Z,-2.01
2023-01-24T03:02:02.752Z,-2.01
2023-01-24T03:04:33.850Z,-2.02
2023-01-24T03:07:03.256Z,-2.02
2023-01-24T03:09:40.005Z,-2.02
2023-01-24T03:12:27.845Z,-2.00
2023-01-24T03:15:21.733Z,-1.99
2023-01-24T03:18:09.582Z,-1.97
2023-01-24T03:20:58.184Z,-1.98
2023-01-24T03:23:45.589Z,-1.98
2023-01-24T03:26:33.090Z,-1.98
2023-01-24T03:29:20.525Z,-1.99
2023-01-24T03:32:09.662Z,-2.00
2023-01-24T03:34:52.117Z,-2.01
2023-01-24T03:37:43.909Z,-2.02
2023-01-24T03:40:16.194Z,-2.01
2023-01-24T03:42:49.617Z,-2.01
2023-01-24T03:45:26.209Z,-1.99
2023-01-24T03:47:57.242Z,-2.00
2023-01-24T03:50:47.494Z,-2.01
2023-01-24T03:53:16.450Z,-2.02
2023-01-24T03:55:46.693Z,-2.04
2023-01-24T03:58:16.388Z,-2.06
2023-01-24T04:00:45.123Z,-2.06
2023-01-24T04:03:26.714Z,-2.08
2023-01-24T04:05:55.577Z,-2.10
2023-01-24T04:08:24.464Z,-2.11
2023-01-24T04:10:57.462Z,-2.12
2023-01-24T04:13:26.280Z,-2.14
2023-01-24T04:15:55.088Z,-2.15
2023-01-24T04:18:32.400Z,-2.16
2023-01-24T04:21:03.102Z,-2.16
2023-01-24T04:23:32.605Z,-2.18
2023-01-24T04:26:02.129Z,-2.18
2023-01-24T04:28:32.352Z,-2.19
2023-01-24T04:31:03.695Z,-2.20
2023-01-24T04:33:51.059Z,-2.20
2023-01-24T04:36:19.834Z,-2.21
2023-01-24T04:38:49.727Z,-2.20
2023-01-24T04:41:24.429Z,-2.21
2023-01-24T04:43:56.220Z,-2.22
2023-01-24T04:46:25.514Z,-2.24
2023-01-24T04:48:56.927Z,-2.26
2023-01-24T04:51:44.677Z,-2.27
2023-01-24T04:54:20.508Z,-2.28
2023-01-24T04:56:51.386Z,-2.30
2023-01-24T04:59:20.002Z,-2.32
2023-01-24T05:01:49.026Z,-2.35
2023-01-24T05:04:56.358Z,-2.36
2023-01-24T05:07:26.094Z,-2.36
2023-01-24T05:10:01.415Z,-2.36
2023-01-24T05:12:30.494Z,-2.37
2023-01-24T05:15:01.949Z,-2.38
2023-01-24T05:17:31.759Z,-2.39
2023-01-24T05:20:00.617Z,-2.38
2023-01-24T05:22:30.616Z,-2.40
2023-01-24T05:24:59.603Z,-2.40
2023-01-24T05:27:28.354Z,-2.41
2023-01-24T05:30:00.939Z,-2.41
2023-01-24T05:32:30.509Z,-2.43
2023-01-24T05:34:59.318Z,-2.46
2023-01-24T05:37:28.327Z,-2.50
2023-01-24T05:39:58.411Z,-2.53
2023-01-24T05:42:26.938Z,-2.55
2023-01-24T05:44:58.052Z,-2.56
2023-01-24T05:47:27.057Z,-2.56
2023-01-24T05:49:56.158Z,-2.55
2023-01-24T05:52:25.694Z,-2.54
2023-01-24T05:54:54.775Z,-2.54
2023-01-24T05:57:38.445Z,-2.54
2023-01-24T06:00:30.662Z,-2.56
2023-01-24T06:03:39.921Z,-2.57
2023-01-24T06:06:10.958Z,-2.58
2023-01-24T06:08:40.334Z,-2.57
2023-01-24T06:11:14.874Z,-2.58
2023-01-24T06:13:43.602Z,-2.59
2023-01-24T06:16:19.708Z,-2.60
2023-01-24T06:18:49.198Z,-2.62
2023-01-24T06:21:34.694Z,-2.64
2023-01-24T06:24:04.857Z,-2.64
2023-01-24T06:26:46.927Z,-2.63
2023-01-24T06:29:17.921Z,-2.59
2023-01-24T06:31:59.248Z,-2.59
2023-01-24T06:34:46.597Z,-2.65
2023-01-24T06:37:21.821Z,-2.73
2023-01-24T06:39:52.876Z,-2.76
2023-01-24T06:42:24.505Z,-2.78
2023-01-24T06:44:55.014Z,-2.81
2023-01-24T06:47:26.400Z,-2.82
2023-01-24T06:49:55.551Z,-2.81
2023-01-24T06:52:24.294Z,-2.81
2023-01-24T06:54:53.022Z,-2.80
2023-01-24T06:57:21.613Z,-2.79
2023-01-24T06:59:51.529Z,-2.78
2023-01-24T07:02:20.518Z,-2.80
2023-01-24T07:04:49.192Z,-2.82
2023-01-24T07:07:20.551Z,-2.84
2023-01-24T07:09:49.735Z,-2.84
2023-01-24T07:12:18.577Z,-2.84
2023-01-24T07:14:47.275Z,-2.86
2023-01-24T07:17:16.287Z,-2.85
2023-01-24T07:19:45.790Z,-2.88
2023-01-24T07:22:15.294Z,-2.87
2023-01-24T07:24:46.251Z,-2.83
2023-01-24T07:27:15.354Z,-2.81
2023-01-24T07:29:44.561Z,-2.81
2023-01-24T11:22:34.696Z,-2.15
2023-01-24T11:25:05.231Z,-2.12
2023-01-24T11:27:45.573Z,-2.09
2023-01-24T11:30:14.428Z,-2.07
2023-01-24T11:33:02.013Z,-2.08
2023-01-24T11:35:36.277Z,-2.13
2023-01-24T11:38:38.291Z,-2.15
2023-01-24T11:41:14.095Z,-2.13
2023-01-24T11:43:50.425Z,-2.13
2023-01-24T11:46:49.681Z,-2.16
2023-01-24T11:49:28.728Z,-2.14
2023-01-24T11:52:06.462Z,-2.07
2023-01-24T11:54:44.099Z,-2.01
2023-01-24T11:57:37.882Z,-1.98
2023-01-24T12:00:12.687Z,-1.95
2023-01-24T12:03:06.522Z,-1.96
2023-01-24T12:05:46.041Z,-2.09
2023-01-24T12:08:38.651Z,-2.15
2023-01-24T12:11:34.609Z,-2.16
2023-01-24T12:14:41.528Z,-2.13
2023-01-24T12:17:38.443Z,-2.12
2023-01-24T12:20:30.505Z,-2.14
2023-01-24T12:23:34.158Z,-2.18
2023-01-24T12:26:04.455Z,-2.20
2023-01-24T12:28:37.074Z,-2.20
2023-01-24T12:31:05.746Z,-2.19
2023-01-24T12:33:57.855Z,-2.19
2023-01-24T12:36:31.074Z,-2.18
2023-01-24T12:39:01.006Z,-2.18
2023-01-24T12:41:37.001Z,-2.19
2023-01-24T12:44:27.165Z,-2.24
2023-01-24T12:47:14.151Z,-2.35
2023-01-24T12:50:05.708Z,-2.44
2023-01-24T12:52:56.728Z,-2.49
2023-01-24T12:55:51.033Z,-2.56
2023-01-24T12:58:25.206Z,-2.60
2023-01-24T13:01:08.018Z,-2.60
2023-01-24T13:04:05.510Z,-2.61
2023-01-24T13:06:34.371Z,-2.72
2023-01-24T13:09:08.709Z,-2.76
2023-01-24T13:11:42.420Z,-2.76
2023-01-24T13:14:21.803Z,-2.76
2023-01-24T13:17:17.511Z,-2.76
2023-01-24T13:19:52.774Z,-2.73
2023-01-24T13:22:40.176Z,-2.74
2023-01-24T13:25:24.289Z,-2.81
2023-01-24T13:27:58.457Z,-2.90
2023-01-24T13:30:32.403Z,-2.97
2023-01-24T13:33:04.562Z,-3.02
2023-01-24T13:35:35.477Z,-3.09
2023-01-24T13:38:25.945Z,-3.17
2023-01-24T13:41:04.241Z,-3.19
2023-01-24T13:43:49.354Z,-3.16
2023-01-24T13:46:17.944Z,-3.15
2023-01-24T13:48:48.207Z,-3.12
2023-01-24T13:51:33.439Z,-3.10
2023-01-24T13:54:26.537Z,-3.09
2023-01-24T13:57:20.420Z,-3.10
2023-01-24T14:00:05.014Z,-3.14
2023-01-24T14:02:54.652Z,-3.19
2023-01-24T14:05:29.460Z,-3.21
2023-01-24T14:08:05.787Z,-3.20
2023-01-24T14:10:35.638Z,-3.20
2023-01-24T14:13:04.671Z,-3.18
2023-01-24T14:15:43.964Z,-3.18
2023-01-24T14:18:52.020Z,-3.21
2023-01-24T14:21:31.970Z,-3.21
2023-01-24T14:24:05.710Z,-3.19
2023-01-24T14:26:36.489Z,-3.19
2023-01-24T14:29:14.477Z,-3.22
2023-01-24T14:31:45.387Z,-3.24
2023-01-24T14:34:49.536Z,-3.22
2023-01-24T14:37:18.915Z,-3.20
2023-01-24T14:39:48.573Z,-3.19
2023-01-24T14:42:17.297Z,-3.24
2023-01-24T14:44:57.019Z,-3.29
2023-01-24T14:47:27.072Z,-3.37
2023-01-24T14:49:57.672Z,-3.40
2023-01-24T14:52:28.092Z,-3.40
2023-01-24T14:54:58.620Z,-3.38
2023-01-24T14:57:30.314Z,-3.33
2023-01-24T15:00:18.678Z,-3.29
2023-01-24T15:02:57.222Z,-3.28
2023-01-24T15:05:39.046Z,-3.30
2023-01-24T15:08:14.489Z,-3.36
2023-01-24T15:10:43.314Z,-3.42
2023-01-24T15:13:28.245Z,-3.44
2023-01-24T15:15:57.255Z,-3.46
2023-01-24T15:18:45.813Z,-3.49
2023-01-24T15:21:39.028Z,-3.49
2023-01-24T15:24:20.496Z,-3.47
2023-01-24T15:26:50.040Z,-3.49
2023-01-24T15:29:37.453Z,-3.50
2023-01-24T15:32:30.010Z,-3.48
2023-01-24T15:35:33.867Z,-3.44
2023-01-24T15:38:11.738Z,-3.39
2023-01-24T15:41:15.973Z,-3.37
2023-01-24T15:44:05.883Z,-3.32
2023-01-24T15:46:57.961Z,-3.29
2023-01-24T15:49:40.225Z,-3.25
2023-01-24T15:52:08.984Z,-3.23
2023-01-24T15:54:38.485Z,-3.22
2023-01-24T15:57:17.711Z,-3.21
2023-01-24T15:59:48.965Z,-3.22
2023-01-24T16:02:17.955Z,-3.23
2023-01-24T16:04:49.073Z,-3.24
2023-01-24T16:07:21.437Z,-3.25
2023-01-24T16:09:50.205Z,-3.23
2023-01-24T16:12:20.540Z,-3.22
2023-01-24T16:15:06.457Z,-3.23
2023-01-24T20:13:02.921Z,-3.50
2023-01-24T20:15:33.515Z,-3.37
2023-01-24T20:18:04.126Z,-3.35
2023-01-24T20:20:35.243Z,-3.32
2023-01-24T20:23:04.405Z,-3.30
2023-01-24T20:25:35.113Z,-3.29
2023-01-24T20:28:04.781Z,-3.28
2023-01-24T20:30:34.548Z,-3.28
2023-01-24T20:33:04.145Z,-3.28
2023-01-24T20:35:34.587Z,-3.29
2023-01-24T20:38:03.861Z,-3.28
2023-01-24T20:40:33.407Z,-3.28
2023-01-24T20:43:02.965Z,-3.29
2023-01-24T20:45:33.670Z,-3.29
2023-01-24T20:48:02.602Z,-3.28
2023-01-24T20:50:31.538Z,-3.29
2023-01-24T20:53:00.895Z,-3.31
2023-01-24T20:55:30.484Z,-3.32
2023-01-24T20:57:59.626Z,-3.34
2023-01-24T21:00:29.474Z,-3.34
2023-01-24T21:02:59.207Z,-3.35
2023-01-24T21:05:32.084Z,-3.34
2023-01-24T21:08:01.325Z,-3.33
2023-01-24T21:10:33.285Z,-3.31
2023-01-24T21:13:02.567Z,-3.29
2023-01-24T21:15:32.130Z,-3.29
2023-01-24T21:18:01.318Z,-3.31
2023-01-24T21:20:30.274Z,-3.30
2023-01-24T21:22:58.644Z,-3.34
2023-01-24T21:25:26.823Z,-3.36
2023-01-24T21:27:55.091Z,-3.36
2023-01-24T21:30:28.414Z,-3.39
2023-01-24T21:32:57.401Z,-3.39
2023-01-24T21:35:27.361Z,-3.40
2023-01-24T21:37:59.473Z,-3.42
2023-01-24T21:40:28.149Z,-3.42
2023-01-24T21:42:57.033Z,-3.41
2023-01-24T21:45:25.630Z,-3.38
2023-01-24T21:47:54.318Z,-3.36
2023-01-24T21:50:23.195Z,-3.38
2023-01-24T21:52:54.858Z,-3.40
2023-01-24T21:55:23.506Z,-3.40
2023-01-24T21:58:05.911Z,-3.38
2023-01-24T22:00:34.646Z,-3.36
2023-01-24T22:03:21.227Z,-3.36
2023-01-24T22:05:49.459Z,-3.33
2023-01-24T22:08:20.760Z,-3.30
2023-01-24T22:10:49.501Z,-3.27
2023-01-24T22:13:18.300Z,-3.26
2023-01-24T22:15:47.325Z,-3.27
2023-01-24T22:18:16.485Z,-3.29
2023-01-24T22:20:45.548Z,-3.30
2023-01-24T22:23:18.824Z,-3.32
2023-01-24T22:26:04.970Z,-3.33
2023-01-24T22:28:34.085Z,-3.34
2023-01-24T22:31:03.915Z,-3.35
2023-01-24T22:33:35.026Z,-3.36
2023-01-24T22:36:04.029Z,-3.36
2023-01-24T22:38:32.848Z,-3.36
2023-01-24T22:41:01.611Z,-3.37
2023-01-24T22:43:30.677Z,-3.37
2023-01-24T22:45:59.601Z,-3.38
2023-01-24T22:48:29.379Z,-3.37
2023-01-24T22:50:58.316Z,-3.37
2023-01-24T22:53:27.127Z,-3.38
2023-01-24T22:55:59.032Z,-3.35
2023-01-24T22:58:28.039Z,-3.33
2023-01-24T23:01:04.495Z,-3.33
2023-01-24T23:03:34.617Z,-3.34
2023-01-24T23:06:09.457Z,-3.34
2023-01-24T23:08:38.479Z,-3.34
2023-01-24T23:11:15.284Z,-3.33
2023-01-24T23:14:03.062Z,-3.33
2023-01-24T23:16:53.253Z,-3.30
2023-01-24T23:19:56.500Z,-3.27
2023-01-24T23:22:27.458Z,-3.24
2023-01-24T23:24:56.510Z,-3.26
2023-01-24T23:27:27.437Z,-3.27
2023-01-24T23:30:19.713Z,-3.28
2023-01-24T23:32:50.858Z,-3.29
2023-01-24T23:35:19.706Z,-3.29
2023-01-24T23:37:48.638Z,-3.31
2023-01-24T23:40:17.974Z,-3.29
2023-01-24T23:42:46.900Z,-3.27
2023-01-24T23:45:17.889Z,-3.24
2023-01-24T23:47:46.631Z,-3.23
2023-01-24T23:50:15.449Z,-3.22
2023-01-24T23:52:44.513Z,-3.24
2023-01-24T23:55:13.515Z,-3.25
2023-01-24T23:57:43.117Z,-3.25
